sensor_id;sensor_type;location;lat;lon;timestamp;P1;durP1;ratioP1;P2;durP2;ratioP2
6679;SDS011;3376;42.664;23.346;2023-08-30T00:01:03;9.50;;;8.90;;
6679;SDS011;3376;42.664;23.346;2023-08-30T00:03:30;10.17;;;9.30;;
6679;SDS011;3376;42.664;23.346;2023-08-30T00:06:03;10.00;;;9.37;;
6679;SDS011;3376;42.664;23.346;2023-08-30T00:08:30;9.83;;;8.97;;
6679;SDS011;3376;42.664;23.346;2023-08-30T00:10:57;9.33;;;8.50;;
6679;SDS011;3376;42.664;23.346;2023-08-30T00:13:24;9.17;;;8.63;;
6679;SDS011;3376;42.664;23.346;2023-08-30T00:15:50;9.10;;;8.30;;
6679;SDS011;3376;42.664;23.346;2023-08-30T00:18:17;9.70;;;8.80;;
6679;SDS011;3376;42.664;23.346;2023-08-30T00:20:44;9.60;;;8.83;;
6679;SDS011;3376;42.664;23.346;2023-08-30T00:23:12;9.23;;;8.43;;
6679;SDS011;3376;42.664;23.346;2023-08-30T00:25:38;8.57;;;7.77;;
6679;SDS011;3376;42.664;23.346;2023-08-30T00:28:05;8.97;;;8.23;;
6679;SDS011;3376;42.664;23.346;2023-08-30T00:30:33;7.57;;;7.17;;
6679;SDS011;3376;42.664;23.346;2023-08-30T00:32:59;8.03;;;7.30;;
6679;SDS011;3376;42.664;23.346;2023-08-30T00:35:26;7.80;;;7.30;;
6679;SDS011;3376;42.664;23.346;2023-08-30T00:37:53;6.70;;;6.43;;
6679;SDS011;3376;42.664;23.346;2023-08-30T00:40:23;7.47;;;7.07;;
6679;SDS011;3376;42.664;23.346;2023-08-30T00:42:50;7.37;;;6.77;;
6679;SDS011;3376;42.664;23.346;2023-08-30T00:45:17;7.77;;;7.33;;
6679;SDS011;3376;42.664;23.346;2023-08-30T00:47:44;8.33;;;7.70;;
6679;SDS011;3376;42.664;23.346;2023-08-30T00:50:11;7.43;;;7.03;;
6679;SDS011;3376;42.664;23.346;2023-08-30T00:52:40;7.37;;;6.80;;
6679;SDS011;3376;42.664;23.346;2023-08-30T00:55:07;7.80;;;7.03;;
6679;SDS011;3376;42.664;23.346;2023-08-30T00:57:35;7.20;;;6.60;;
6679;SDS011;3376;42.664;23.346;2023-08-30T01:00:03;6.77;;;6.17;;
6679;SDS011;3376;42.664;23.346;2023-08-30T01:02:32;7.17;;;6.67;;
6679;SDS011;3376;42.664;23.346;2023-08-30T01:04:59;6.80;;;6.40;;
6679;SDS011;3376;42.664;23.346;2023-08-30T01:07:26;7.57;;;6.97;;
6679;SDS011;3376;42.664;23.346;2023-08-30T01:09:53;7.23;;;6.53;;
6679;SDS011;3376;42.664;23.346;2023-08-30T01:12:22;7.00;;;6.60;;
6679;SDS011;3376;42.664;23.346;2023-08-30T01:14:58;6.63;;;6.33;;
6679;SDS011;3376;42.664;23.346;2023-08-30T01:17:30;7.53;;;6.93;;
6679;SDS011;3376;42.664;23.346;2023-08-30T01:20:00;6.87;;;6.47;;
6679;SDS011;3376;42.664;23.346;2023-08-30T01:22:37;5.90;;;5.53;;
6679;SDS011;3376;42.664;23.346;2023-08-30T01:25:12;7.13;;;6.50;;
6679;SDS011;3376;42.664;23.346;2023-08-30T01:27:48;6.63;;;6.00;;
6679;SDS011;3376;42.664;23.346;2023-08-30T01:30:17;6.20;;;5.90;;
6679;SDS011;3376;42.664;23.346;2023-08-30T01:32:45;6.27;;;5.87;;
6679;SDS011;3376;42.664;23.346;2023-08-30T01:35:12;6.97;;;6.27;;
6679;SDS011;3376;42.664;23.346;2023-08-30T01:37:43;7.10;;;6.50;;
6679;SDS011;3376;42.664;23.346;2023-08-30T01:40:11;6.20;;;5.80;;
6679;SDS011;3376;42.664;23.346;2023-08-30T01:42:39;6.70;;;6.30;;
6679;SDS011;3376;42.664;23.346;2023-08-30T01:45:10;6.43;;;6.03;;
6679;SDS011;3376;42.664;23.346;2023-08-30T01:47:39;6.87;;;6.37;;
6679;SDS011;3376;42.664;23.346;2023-08-30T01:50:09;5.93;;;5.63;;
6679;SDS011;3376;42.664;23.346;2023-08-30T01:52:37;8.30;;;6.57;;
6679;SDS011;3376;42.664;23.346;2023-08-30T01:55:05;6.47;;;6.17;;
6679;SDS011;3376;42.664;23.346;2023-08-30T01:57:34;6.30;;;5.80;;
6679;SDS011;3376;42.664;23.346;2023-08-30T02:00:00;7.07;;;6.53;;
6679;SDS011;3376;42.664;23.346;2023-08-30T02:02:29;6.93;;;6.37;;
6679;SDS011;3376;42.664;23.346;2023-08-30T02:04:56;7.63;;;7.03;;
6679;SDS011;3376;42.664;23.346;2023-08-30T02:07:25;7.03;;;6.43;;
6679;SDS011;3376;42.664;23.346;2023-08-30T02:09:57;7.23;;;6.53;;
6679;SDS011;3376;42.664;23.346;2023-08-30T02:12:27;6.40;;;6.00;;
6679;SDS011;3376;42.664;23.346;2023-08-30T02:14:58;6.43;;;5.93;;
6679;SDS011;3376;42.664;23.346;2023-08-30T02:17:26;6.60;;;6.10;;
6679;SDS011;3376;42.664;23.346;2023-08-30T02:19:55;6.77;;;6.20;;
6679;SDS011;3376;42.664;23.346;2023-08-30T02:22:21;7.17;;;6.57;;
6679;SDS011;3376;42.664;23.346;2023-08-30T02:24:48;8.17;;;6.73;;
6679;SDS011;3376;42.664;23.346;2023-08-30T02:27:15;7.20;;;6.80;;
6679;SDS011;3376;42.664;23.346;2023-08-30T02:29:42;7.17;;;6.63;;
6679;SDS011;3376;42.664;23.346;2023-08-30T02:32:08;6.03;;;5.73;;
6679;SDS011;3376;42.664;23.346;2023-08-30T02:34:35;6.87;;;6.37;;
6679;SDS011;3376;42.664;23.346;2023-08-30T02:37:03;6.80;;;6.30;;
6679;SDS011;3376;42.664;23.346;2023-08-30T02:39:30;7.07;;;6.57;;
6679;SDS011;3376;42.664;23.346;2023-08-30T02:41:57;6.97;;;6.30;;
6679;SDS011;3376;42.664;23.346;2023-08-30T02:44:24;7.23;;;6.57;;
6679;SDS011;3376;42.664;23.346;2023-08-30T02:46:50;7.13;;;6.63;;
6679;SDS011;3376;42.664;23.346;2023-08-30T02:49:17;6.73;;;6.33;;
6679;SDS011;3376;42.664;23.346;2023-08-30T02:51:44;7.30;;;6.90;;
6679;SDS011;3376;42.664;23.346;2023-08-30T02:54:12;7.13;;;6.83;;
6679;SDS011;3376;42.664;23.346;2023-08-30T02:56:39;6.43;;;5.93;;
6679;SDS011;3376;42.664;23.346;2023-08-30T02:59:07;7.13;;;6.40;;
6679;SDS011;3376;42.664;23.346;2023-08-30T03:01:34;6.93;;;6.40;;
6679;SDS011;3376;42.664;23.346;2023-08-30T03:04:01;7.03;;;6.63;;
6679;SDS011;3376;42.664;23.346;2023-08-30T03:06:28;7.53;;;6.80;;
6679;SDS011;3376;42.664;23.346;2023-08-30T03:08:55;6.90;;;6.40;;
6679;SDS011;3376;42.664;23.346;2023-08-30T03:11:23;6.97;;;6.57;;
6679;SDS011;3376;42.664;23.346;2023-08-30T03:13:50;6.73;;;6.33;;
6679;SDS011;3376;42.664;23.346;2023-08-30T03:16:17;7.77;;;6.70;;
6679;SDS011;3376;42.664;23.346;2023-08-30T03:18:44;7.03;;;6.33;;
6679;SDS011;3376;42.664;23.346;2023-08-30T03:21:11;7.43;;;6.93;;
6679;SDS011;3376;42.664;23.346;2023-08-30T03:23:38;7.77;;;7.27;;
6679;SDS011;3376;42.664;23.346;2023-08-30T03:26:08;7.27;;;6.70;;
6679;SDS011;3376;42.664;23.346;2023-08-30T03:28:36;9.40;;;7.80;;
6679;SDS011;3376;42.664;23.346;2023-08-30T03:31:10;8.57;;;8.00;;
6679;SDS011;3376;42.664;23.346;2023-08-30T03:33:38;7.97;;;7.43;;
6679;SDS011;3376;42.664;23.346;2023-08-30T03:36:06;8.67;;;7.10;;
6679;SDS011;3376;42.664;23.346;2023-08-30T03:38:33;7.93;;;7.23;;
6679;SDS011;3376;42.664;23.346;2023-08-30T03:41:00;6.90;;;6.30;;
6679;SDS011;3376;42.664;23.346;2023-08-30T03:43:26;8.23;;;7.23;;
6679;SDS011;3376;42.664;23.346;2023-08-30T03:45:55;8.77;;;7.97;;
6679;SDS011;3376;42.664;23.346;2023-08-30T03:48:22;7.00;;;6.60;;
6679;SDS011;3376;42.664;23.346;2023-08-30T03:50:49;8.50;;;7.50;;
6679;SDS011;3376;42.664;23.346;2023-08-30T03:53:15;7.60;;;7.00;;
6679;SDS011;3376;42.664;23.346;2023-08-30T03:55:42;7.60;;;7.10;;
6679;SDS011;3376;42.664;23.346;2023-08-30T03:58:09;9.07;;;8.27;;
6679;SDS011;3376;42.664;23.346;2023-08-30T04:00:36;7.63;;;7.13;;
6679;SDS011;3376;42.664;23.346;2023-08-30T04:03:04;8.00;;;7.53;;
6679;SDS011;3376;42.664;23.346;2023-08-30T04:05:35;8.33;;;7.57;;
6679;SDS011;3376;42.664;23.346;2023-08-30T04:08:02;7.83;;;7.13;;
6679;SDS011;3376;42.664;23.346;2023-08-30T04:10:33;8.30;;;7.60;;
6679;SDS011;3376;42.664;23.346;2023-08-30T04:13:01;9.10;;;8.40;;
6679;SDS011;3376;42.664;23.346;2023-08-30T04:15:28;9.50;;;8.70;;
6679;SDS011;3376;42.664;23.346;2023-08-30T04:17:55;12.43;;;9.20;;
6679;SDS011;3376;42.664;23.346;2023-08-30T04:20:23;8.53;;;7.90;;
6679;SDS011;3376;42.664;23.346;2023-08-30T04:22:50;10.47;;;9.77;;
6679;SDS011;3376;42.664;23.346;2023-08-30T04:25:18;9.30;;;8.57;;
6679;SDS011;3376;42.664;23.346;2023-08-30T04:27:45;10.20;;;9.60;;
6679;SDS011;3376;42.664;23.346;2023-08-30T04:30:12;10.13;;;9.43;;
6679;SDS011;3376;42.664;23.346;2023-08-30T04:32:39;10.37;;;9.40;;
6679;SDS011;3376;42.664;23.346;2023-08-30T04:35:07;10.50;;;9.57;;
6679;SDS011;3376;42.664;23.346;2023-08-30T04:37:36;10.33;;;9.43;;
6679;SDS011;3376;42.664;23.346;2023-08-30T04:40:04;9.80;;;9.00;;
6679;SDS011;3376;42.664;23.346;2023-08-30T04:42:33;10.27;;;9.57;;
6679;SDS011;3376;42.664;23.346;2023-08-30T04:44:59;10.07;;;9.40;;
6679;SDS011;3376;42.664;23.346;2023-08-30T04:47:28;9.27;;;8.67;;
6679;SDS011;3376;42.664;23.346;2023-08-30T04:49:54;9.17;;;8.40;;
6679;SDS011;3376;42.664;23.346;2023-08-30T04:52:21;9.13;;;8.50;;
6679;SDS011;3376;42.664;23.346;2023-08-30T04:54:49;10.93;;;8.73;;
6679;SDS011;3376;42.664;23.346;2023-08-30T04:57:16;8.40;;;7.77;;
6679;SDS011;3376;42.664;23.346;2023-08-30T04:59:44;9.90;;;9.00;;
6679;SDS011;3376;42.664;23.346;2023-08-30T05:02:11;8.90;;;8.30;;
6679;SDS011;3376;42.664;23.346;2023-08-30T05:04:38;9.73;;;8.93;;
6679;SDS011;3376;42.664;23.346;2023-08-30T05:07:04;9.23;;;8.50;;
6679;SDS011;3376;42.664;23.346;2023-08-30T05:09:31;11.23;;;8.93;;
6679;SDS011;3376;42.664;23.346;2023-08-30T05:12:01;9.90;;;9.10;;
6679;SDS011;3376;42.664;23.346;2023-08-30T05:14:28;12.87;;;8.53;;
6679;SDS011;3376;42.664;23.346;2023-08-30T05:16:55;8.20;;;7.50;;
6679;SDS011;3376;42.664;23.346;2023-08-30T05:19:21;8.53;;;7.40;;
6679;SDS011;3376;42.664;23.346;2023-08-30T05:21:48;9.50;;;8.90;;
6679;SDS011;3376;42.664;23.346;2023-08-30T05:24:16;10.00;;;8.53;;
6679;SDS011;3376;42.664;23.346;2023-08-30T05:26:43;9.97;;;9.20;;
6679;SDS011;3376;42.664;23.346;2023-08-30T05:29:13;10.27;;;9.27;;
6679;SDS011;3376;42.664;23.346;2023-08-30T05:31:40;9.93;;;8.97;;
6679;SDS011;3376;42.664;23.346;2023-08-30T05:34:07;10.50;;;9.50;;
6679;SDS011;3376;42.664;23.346;2023-08-30T05:36:34;10.43;;;9.40;;
6679;SDS011;3376;42.664;23.346;2023-08-30T05:39:01;8.73;;;7.77;;
6679;SDS011;3376;42.664;23.346;2023-08-30T05:41:28;7.80;;;7.10;;
6679;SDS011;3376;42.664;23.346;2023-08-30T05:43:55;7.90;;;7.10;;
6679;SDS011;3376;42.664;23.346;2023-08-30T05:46:23;6.70;;;5.30;;
6679;SDS011;3376;42.664;23.346;2023-08-30T05:48:50;5.37;;;4.90;;
6679;SDS011;3376;42.664;23.346;2023-08-30T05:51:17;4.57;;;4.27;;
6679;SDS011;3376;42.664;23.346;2023-08-30T05:53:45;5.10;;;4.57;;
6679;SDS011;3376;42.664;23.346;2023-08-30T05:56:12;4.97;;;4.57;;
6679;SDS011;3376;42.664;23.346;2023-08-30T05:58:38;5.37;;;4.47;;
6679;SDS011;3376;42.664;23.346;2023-08-30T06:01:05;5.47;;;5.07;;
6679;SDS011;3376;42.664;23.346;2023-08-30T06:03:34;4.60;;;4.23;;
6679;SDS011;3376;42.664;23.346;2023-08-30T06:06:01;4.97;;;4.67;;
6679;SDS011;3376;42.664;23.346;2023-08-30T06:08:28;4.17;;;3.90;;
6679;SDS011;3376;42.664;23.346;2023-08-30T06:10:55;4.33;;;3.93;;
6679;SDS011;3376;42.664;23.346;2023-08-30T06:13:22;4.90;;;4.50;;
6679;SDS011;3376;42.664;23.346;2023-08-30T06:15:50;4.30;;;4.07;;
6679;SDS011;3376;42.664;23.346;2023-08-30T06:18:17;6.13;;;4.37;;
6679;SDS011;3376;42.664;23.346;2023-08-30T06:20:45;3.97;;;3.77;;
6679;SDS011;3376;42.664;23.346;2023-08-30T06:23:13;4.50;;;4.30;;
6679;SDS011;3376;42.664;23.346;2023-08-30T06:25:40;4.73;;;4.33;;
6679;SDS011;3376;42.664;23.346;2023-08-30T06:28:06;4.73;;;4.43;;
6679;SDS011;3376;42.664;23.346;2023-08-30T06:30:33;5.10;;;4.70;;
6679;SDS011;3376;42.664;23.346;2023-08-30T06:33:00;3.80;;;3.60;;
6679;SDS011;3376;42.664;23.346;2023-08-30T06:35:27;7.67;;;4.03;;
6679;SDS011;3376;42.664;23.346;2023-08-30T06:37:55;3.93;;;3.73;;
6679;SDS011;3376;42.664;23.346;2023-08-30T06:40:22;3.63;;;3.42;;
6679;SDS011;3376;42.664;23.346;2023-08-30T06:42:49;3.43;;;3.23;;
6679;SDS011;3376;42.664;23.346;2023-08-30T06:45:15;4.55;;;4.15;;
6679;SDS011;3376;42.664;23.346;2023-08-30T06:47:42;4.07;;;3.53;;
6679;SDS011;3376;42.664;23.346;2023-08-30T06:50:09;3.45;;;3.35;;
6679;SDS011;3376;42.664;23.346;2023-08-30T06:52:36;3.45;;;3.25;;
6679;SDS011;3376;42.664;23.346;2023-08-30T06:55:05;4.15;;;3.95;;
6679;SDS011;3376;42.664;23.346;2023-08-30T06:57:32;5.07;;;4.53;;
6679;SDS011;3376;42.664;23.346;2023-08-30T06:59:58;3.15;;;3.05;;
6679;SDS011;3376;42.664;23.346;2023-08-30T07:02:32;5.00;;;3.45;;
6679;SDS011;3376;42.664;23.346;2023-08-30T07:04:59;3.90;;;3.70;;
6679;SDS011;3376;42.664;23.346;2023-08-30T07:07:26;5.20;;;4.13;;
6679;SDS011;3376;42.664;23.346;2023-08-30T07:09:53;3.83;;;3.42;;
6679;SDS011;3376;42.664;23.346;2023-08-30T07:12:21;4.40;;;4.15;;
6679;SDS011;3376;42.664;23.346;2023-08-30T07:14:48;3.08;;;2.97;;
6679;SDS011;3376;42.664;23.346;2023-08-30T07:17:15;3.97;;;3.47;;
6679;SDS011;3376;42.664;23.346;2023-08-30T07:19:42;3.53;;;3.30;;
6679;SDS011;3376;42.664;23.346;2023-08-30T07:22:08;3.42;;;3.22;;
6679;SDS011;3376;42.664;23.346;2023-08-30T07:24:35;4.68;;;3.95;;
6679;SDS011;3376;42.664;23.346;2023-08-30T07:27:02;3.50;;;3.20;;
6679;SDS011;3376;42.664;23.346;2023-08-30T07:29:30;4.15;;;3.75;;
6679;SDS011;3376;42.664;23.346;2023-08-30T07:31:57;4.30;;;3.97;;
6679;SDS011;3376;42.664;23.346;2023-08-30T07:34:24;4.07;;;3.80;;
6679;SDS011;3376;42.664;23.346;2023-08-30T07:36:53;3.92;;;3.72;;
6679;SDS011;3376;42.664;23.346;2023-08-30T07:39:20;6.78;;;3.85;;
6679;SDS011;3376;42.664;23.346;2023-08-30T07:41:47;3.45;;;3.25;;
6679;SDS011;3376;42.664;23.346;2023-08-30T07:44:14;4.45;;;4.05;;
6679;SDS011;3376;42.664;23.346;2023-08-30T07:46:42;3.50;;;3.30;;
6679;SDS011;3376;42.664;23.346;2023-08-30T07:49:09;3.15;;;2.97;;
6679;SDS011;3376;42.664;23.346;2023-08-30T07:51:36;5.90;;;3.60;;
6679;SDS011;3376;42.664;23.346;2023-08-30T07:54:03;3.95;;;3.75;;
6679;SDS011;3376;42.664;23.346;2023-08-30T07:56:30;3.85;;;3.65;;
6679;SDS011;3376;42.664;23.346;2023-08-30T07:58:56;3.50;;;3.35;;
6679;SDS011;3376;42.664;23.346;2023-08-30T08:01:23;3.63;;;3.42;;
6679;SDS011;3376;42.664;23.346;2023-08-30T08:03:51;3.50;;;2.97;;
6679;SDS011;3376;42.664;23.346;2023-08-30T08:06:18;3.83;;;3.53;;
6679;SDS011;3376;42.664;23.346;2023-08-30T08:08:45;6.40;;;4.10;;
6679;SDS011;3376;42.664;23.346;2023-08-30T08:11:11;3.53;;;3.30;;
6679;SDS011;3376;42.664;23.346;2023-08-30T08:13:38;6.13;;;3.88;;
6679;SDS011;3376;42.664;23.346;2023-08-30T08:16:05;7.25;;;4.45;;
6679;SDS011;3376;42.664;23.346;2023-08-30T08:18:32;6.28;;;3.95;;
6679;SDS011;3376;42.664;23.346;2023-08-30T08:21:00;5.90;;;4.43;;
6679;SDS011;3376;42.664;23.346;2023-08-30T08:23:27;5.90;;;4.60;;
6679;SDS011;3376;42.664;23.346;2023-08-30T08:25:57;5.03;;;3.85;;
6679;SDS011;3376;42.664;23.346;2023-08-30T08:28:24;4.47;;;4.15;;
6679;SDS011;3376;42.664;23.346;2023-08-30T08:30:50;4.43;;;4.22;;
6679;SDS011;3376;42.664;23.346;2023-08-30T08:33:17;4.55;;;3.75;;
6679;SDS011;3376;42.664;23.346;2023-08-30T08:35:45;5.80;;;4.20;;
6679;SDS011;3376;42.664;23.346;2023-08-30T08:38:13;3.92;;;3.53;;
6679;SDS011;3376;42.664;23.346;2023-08-30T08:40:39;3.85;;;3.33;;
6679;SDS011;3376;42.664;23.346;2023-08-30T08:43:06;3.90;;;3.10;;
6679;SDS011;3376;42.664;23.346;2023-08-30T08:45:37;3.53;;;3.20;;
6679;SDS011;3376;42.664;23.346;2023-08-30T08:48:04;4.60;;;3.17;;
6679;SDS011;3376;42.664;23.346;2023-08-30T08:50:32;3.28;;;2.97;;
6679;SDS011;3376;42.664;23.346;2023-08-30T08:52:59;3.78;;;3.35;;
6679;SDS011;3376;42.664;23.346;2023-08-30T08:55:28;3.97;;;3.55;;
6679;SDS011;3376;42.664;23.346;2023-08-30T08:57:56;3.30;;;3.10;;
6679;SDS011;3376;42.664;23.346;2023-08-30T09:00:24;3.78;;;3.47;;
6679;SDS011;3376;42.664;23.346;2023-08-30T09:02:50;3.67;;;3.38;;
6679;SDS011;3376;42.664;23.346;2023-08-30T09:05:19;3.80;;;3.38;;
6679;SDS011;3376;42.664;23.346;2023-08-30T09:07:46;4.07;;;3.42;;
6679;SDS011;3376;42.664;23.346;2023-08-30T09:10:13;3.80;;;3.35;;
6679;SDS011;3376;42.664;23.346;2023-08-30T09:12:41;4.40;;;3.25;;
6679;SDS011;3376;42.664;23.346;2023-08-30T09:15:08;3.53;;;3.30;;
6679;SDS011;3376;42.664;23.346;2023-08-30T09:17:35;4.10;;;3.53;;
6679;SDS011;3376;42.664;23.346;2023-08-30T09:20:08;4.90;;;3.85;;
6679;SDS011;3376;42.664;23.346;2023-08-30T09:22:37;3.47;;;3.25;;
6679;SDS011;3376;42.664;23.346;2023-08-30T09:25:05;3.88;;;3.45;;
6679;SDS011;3376;42.664;23.346;2023-08-30T09:27:32;3.40;;;3.25;;
6679;SDS011;3376;42.664;23.346;2023-08-30T09:30:01;4.13;;;3.47;;
6679;SDS011;3376;42.664;23.346;2023-08-30T09:32:30;5.43;;;3.53;;
6679;SDS011;3376;42.664;23.346;2023-08-30T09:34:57;7.03;;;3.83;;
6679;SDS011;3376;42.664;23.346;2023-08-30T09:37:24;4.05;;;3.75;;
6679;SDS011;3376;42.664;23.346;2023-08-30T09:39:51;4.13;;;3.83;;
6679;SDS011;3376;42.664;23.346;2023-08-30T09:42:18;4.50;;;4.07;;
6679;SDS011;3376;42.664;23.346;2023-08-30T09:44:45;6.05;;;3.95;;
6679;SDS011;3376;42.664;23.346;2023-08-30T09:47:14;3.70;;;3.42;;
6679;SDS011;3376;42.664;23.346;2023-08-30T09:49:42;4.18;;;3.78;;
6679;SDS011;3376;42.664;23.346;2023-08-30T09:52:10;4.90;;;3.85;;
6679;SDS011;3376;42.664;23.346;2023-08-30T09:54:40;3.95;;;3.55;;
6679;SDS011;3376;42.664;23.346;2023-08-30T09:57:09;4.70;;;4.03;;
6679;SDS011;3376;42.664;23.346;2023-08-30T09:59:36;7.95;;;4.43;;
6679;SDS011;3376;42.664;23.346;2023-08-30T10:02:05;3.97;;;3.78;;
6679;SDS011;3376;42.664;23.346;2023-08-30T10:04:33;3.78;;;3.40;;
6679;SDS011;3376;42.664;23.346;2023-08-30T10:07:02;4.78;;;4.30;;
6679;SDS011;3376;42.664;23.346;2023-08-30T10:09:30;4.07;;;3.85;;
6679;SDS011;3376;42.664;23.346;2023-08-30T10:11:58;4.53;;;4.13;;
6679;SDS011;3376;42.664;23.346;2023-08-30T10:14:26;4.35;;;4.05;;
6679;SDS011;3376;42.664;23.346;2023-08-30T10:16:56;5.00;;;4.32;;
6679;SDS011;3376;42.664;23.346;2023-08-30T10:19:27;6.18;;;3.40;;
6679;SDS011;3376;42.664;23.346;2023-08-30T10:21:57;4.97;;;4.68;;
6679;SDS011;3376;42.664;23.346;2023-08-30T10:24:28;4.22;;;4.03;;
6679;SDS011;3376;42.664;23.346;2023-08-30T10:26:58;4.30;;;3.90;;
6679;SDS011;3376;42.664;23.346;2023-08-30T10:29:27;4.88;;;4.43;;
6679;SDS011;3376;42.664;23.346;2023-08-30T10:31:54;4.38;;;4.13;;
6679;SDS011;3376;42.664;23.346;2023-08-30T10:34:21;6.97;;;4.40;;
6679;SDS011;3376;42.664;23.346;2023-08-30T10:37:00;5.22;;;4.85;;
6679;SDS011;3376;42.664;23.346;2023-08-30T10:39:32;5.13;;;4.63;;
6679;SDS011;3376;42.664;23.346;2023-08-30T10:42:06;4.53;;;4.32;;
6679;SDS011;3376;42.664;23.346;2023-08-30T10:44:35;5.75;;;4.40;;
6679;SDS011;3376;42.664;23.346;2023-08-30T10:47:17;4.80;;;4.50;;
6679;SDS011;3376;42.664;23.346;2023-08-30T10:49:46;6.07;;;4.75;;
6679;SDS011;3376;42.664;23.346;2023-08-30T10:52:15;6.10;;;5.75;;
6679;SDS011;3376;42.664;23.346;2023-08-30T10:54:41;4.97;;;4.57;;
6679;SDS011;3376;42.664;23.346;2023-08-30T10:57:18;5.32;;;4.88;;
6679;SDS011;3376;42.664;23.346;2023-08-30T11:00:05;5.13;;;4.60;;
6679;SDS011;3376;42.664;23.346;2023-08-30T11:02:34;4.65;;;4.32;;
6679;SDS011;3376;42.664;23.346;2023-08-30T11:05:02;4.50;;;4.30;;
6679;SDS011;3376;42.664;23.346;2023-08-30T11:07:32;5.28;;;4.60;;
6679;SDS011;3376;42.664;23.346;2023-08-30T11:09:59;5.13;;;4.82;;
6679;SDS011;3376;42.664;23.346;2023-08-30T11:12:26;7.70;;;4.53;;
6679;SDS011;3376;42.664;23.346;2023-08-30T11:14:55;5.85;;;4.95;;
6679;SDS011;3376;42.664;23.346;2023-08-30T11:17:21;5.13;;;4.57;;
6679;SDS011;3376;42.664;23.346;2023-08-30T11:19:49;6.32;;;4.45;;
6679;SDS011;3376;42.664;23.346;2023-08-30T11:22:17;5.35;;;4.70;;
6679;SDS011;3376;42.664;23.346;2023-08-30T11:24:48;5.80;;;5.45;;
6679;SDS011;3376;42.664;23.346;2023-08-30T11:27:16;5.10;;;4.65;;
6679;SDS011;3376;42.664;23.346;2023-08-30T11:29:43;5.20;;;4.80;;
6679;SDS011;3376;42.664;23.346;2023-08-30T11:32:10;4.40;;;4.20;;
6679;SDS011;3376;42.664;23.346;2023-08-30T11:34:37;8.95;;;4.90;;
6679;SDS011;3376;42.664;23.346;2023-08-30T11:37:04;4.68;;;4.38;;
6679;SDS011;3376;42.664;23.346;2023-08-30T11:39:30;5.28;;;4.78;;
6679;SDS011;3376;42.664;23.346;2023-08-30T11:41:59;4.82;;;4.40;;
6679;SDS011;3376;42.664;23.346;2023-08-30T11:44:28;5.30;;;4.90;;
6679;SDS011;3376;42.664;23.346;2023-08-30T11:46:58;4.75;;;4.45;;
6679;SDS011;3376;42.664;23.346;2023-08-30T11:49:25;5.47;;;4.85;;
6679;SDS011;3376;42.664;23.346;2023-08-30T11:51:52;5.50;;;5.13;;
6679;SDS011;3376;42.664;23.346;2023-08-30T11:54:21;5.65;;;5.25;;
6679;SDS011;3376;42.664;23.346;2023-08-30T11:56:49;5.30;;;5.00;;
6679;SDS011;3376;42.664;23.346;2023-08-30T11:59:21;6.22;;;5.95;;
6679;SDS011;3376;42.664;23.346;2023-08-30T12:01:48;6.88;;;6.20;;
6679;SDS011;3376;42.664;23.346;2023-08-30T12:04:15;5.20;;;4.78;;
6679;SDS011;3376;42.664;23.346;2023-08-30T12:06:43;5.28;;;4.97;;
6679;SDS011;3376;42.664;23.346;2023-08-30T12:09:13;5.20;;;4.85;;
6679;SDS011;3376;42.664;23.346;2023-08-30T12:11:40;5.30;;;4.90;;
6679;SDS011;3376;42.664;23.346;2023-08-30T12:14:07;5.88;;;5.50;;
6679;SDS011;3376;42.664;23.346;2023-08-30T12:16:35;5.55;;;5.13;;
6679;SDS011;3376;42.664;23.346;2023-08-30T12:19:08;4.88;;;4.65;;
6679;SDS011;3376;42.664;23.346;2023-08-30T12:21:39;5.22;;;4.82;;
6679;SDS011;3376;42.664;23.346;2023-08-30T12:24:07;6.05;;;4.88;;
6679;SDS011;3376;42.664;23.346;2023-08-30T12:26:34;6.07;;;5.50;;
6679;SDS011;3376;42.664;23.346;2023-08-30T12:29:03;5.50;;;5.20;;
6679;SDS011;3376;42.664;23.346;2023-08-30T12:31:30;5.55;;;5.18;;
6679;SDS011;3376;42.664;23.346;2023-08-30T12:33:58;6.72;;;5.10;;
6679;SDS011;3376;42.664;23.346;2023-08-30T12:36:25;5.90;;;5.38;;
6679;SDS011;3376;42.664;23.346;2023-08-30T12:38:52;5.25;;;4.97;;
6679;SDS011;3376;42.664;23.346;2023-08-30T12:41:19;8.50;;;5.15;;
6679;SDS011;3376;42.664;23.346;2023-08-30T12:43:48;12.80;;;4.90;;
6679;SDS011;3376;42.664;23.346;2023-08-30T12:46:15;5.72;;;5.53;;
6679;SDS011;3376;42.664;23.346;2023-08-30T12:48:42;5.32;;;4.88;;
6679;SDS011;3376;42.664;23.346;2023-08-30T12:51:10;5.53;;;5.15;;
6679;SDS011;3376;42.664;23.346;2023-08-30T12:53:38;5.35;;;4.82;;
6679;SDS011;3376;42.664;23.346;2023-08-30T12:56:05;6.15;;;5.65;;
6679;SDS011;3376;42.664;23.346;2023-08-30T12:58:32;5.82;;;5.35;;
6679;SDS011;3376;42.664;23.346;2023-08-30T13:00:59;5.40;;;5.10;;
6679;SDS011;3376;42.664;23.346;2023-08-30T13:03:26;6.55;;;5.60;;
6679;SDS011;3376;42.664;23.346;2023-08-30T13:05:52;5.93;;;5.40;;
6679;SDS011;3376;42.664;23.346;2023-08-30T13:08:20;5.95;;;5.75;;
6679;SDS011;3376;42.664;23.346;2023-08-30T13:10:47;5.93;;;5.50;;
6679;SDS011;3376;42.664;23.346;2023-08-30T13:13:14;6.15;;;5.65;;
6679;SDS011;3376;42.664;23.346;2023-08-30T13:15:41;5.97;;;5.53;;
6679;SDS011;3376;42.664;23.346;2023-08-30T13:18:08;5.22;;;4.88;;
6679;SDS011;3376;42.664;23.346;2023-08-30T13:20:37;5.43;;;5.22;;
6679;SDS011;3376;42.664;23.346;2023-08-30T13:23:04;6.00;;;5.70;;
6679;SDS011;3376;42.664;23.346;2023-08-30T13:25:32;5.70;;;5.35;;
6679;SDS011;3376;42.664;23.346;2023-08-30T13:27:59;5.70;;;5.35;;
6679;SDS011;3376;42.664;23.346;2023-08-30T13:30:26;5.70;;;5.28;;
6679;SDS011;3376;42.664;23.346;2023-08-30T13:32:52;4.72;;;4.53;;
6679;SDS011;3376;42.664;23.346;2023-08-30T13:35:19;4.15;;;3.92;;
6679;SDS011;3376;42.664;23.346;2023-08-30T13:37:46;5.03;;;4.75;;
6679;SDS011;3376;42.664;23.346;2023-08-30T13:40:13;4.82;;;4.45;;
6679;SDS011;3376;42.664;23.346;2023-08-30T13:42:41;3.88;;;3.78;;
6679;SDS011;3376;42.664;23.346;2023-08-30T13:45:08;4.32;;;4.03;;
6679;SDS011;3376;42.664;23.346;2023-08-30T13:47:35;6.72;;;4.95;;
6679;SDS011;3376;42.664;23.346;2023-08-30T13:50:02;4.20;;;3.75;;
6679;SDS011;3376;42.664;23.346;2023-08-30T13:52:30;4.13;;;3.80;;
6679;SDS011;3376;42.664;23.346;2023-08-30T13:54:58;4.45;;;4.18;;
6679;SDS011;3376;42.664;23.346;2023-08-30T13:57:24;5.28;;;3.85;;
6679;SDS011;3376;42.664;23.346;2023-08-30T13:59:53;4.75;;;4.38;;
6679;SDS011;3376;42.664;23.346;2023-08-30T14:02:20;4.78;;;4.10;;
6679;SDS011;3376;42.664;23.346;2023-08-30T14:04:46;4.57;;;4.38;;
6679;SDS011;3376;42.664;23.346;2023-08-30T14:07:14;4.47;;;4.28;;
6679;SDS011;3376;42.664;23.346;2023-08-30T14:09:41;4.80;;;4.45;;
6679;SDS011;3376;42.664;23.346;2023-08-30T14:12:07;4.40;;;4.05;;
6679;SDS011;3376;42.664;23.346;2023-08-30T14:14:35;5.05;;;4.65;;
6679;SDS011;3376;42.664;23.346;2023-08-30T14:17:03;3.83;;;3.53;;
6679;SDS011;3376;42.664;23.346;2023-08-30T14:19:30;4.80;;;4.50;;
6679;SDS011;3376;42.664;23.346;2023-08-30T14:21:57;4.50;;;4.20;;
6679;SDS011;3376;42.664;23.346;2023-08-30T14:24:24;4.47;;;4.18;;
6679;SDS011;3376;42.664;23.346;2023-08-30T14:26:51;4.38;;;4.18;;
6679;SDS011;3376;42.664;23.346;2023-08-30T14:29:19;5.35;;;4.05;;
6679;SDS011;3376;42.664;23.346;2023-08-30T14:31:46;3.45;;;3.30;;
6679;SDS011;3376;42.664;23.346;2023-08-30T14:34:14;3.55;;;3.25;;
6679;SDS011;3376;42.664;23.346;2023-08-30T14:36:41;4.40;;;3.65;;
6679;SDS011;3376;42.664;23.346;2023-08-30T14:39:08;4.43;;;3.35;;
6679;SDS011;3376;42.664;23.346;2023-08-30T14:41:35;4.10;;;3.35;;
6679;SDS011;3376;42.664;23.346;2023-08-30T14:44:03;3.22;;;3.05;;
6679;SDS011;3376;42.664;23.346;2023-08-30T14:46:30;3.65;;;3.35;;
6679;SDS011;3376;42.664;23.346;2023-08-30T14:48:57;4.30;;;4.00;;
6679;SDS011;3376;42.664;23.346;2023-08-30T14:51:25;3.38;;;3.13;;
6679;SDS011;3376;42.664;23.346;2023-08-30T14:53:52;4.10;;;3.28;;
6679;SDS011;3376;42.664;23.346;2023-08-30T14:56:18;3.20;;;3.00;;
6679;SDS011;3376;42.664;23.346;2023-08-30T14:58:45;3.17;;;2.83;;
6679;SDS011;3376;42.664;23.346;2023-08-30T15:01:14;3.72;;;3.53;;
6679;SDS011;3376;42.664;23.346;2023-08-30T15:03:41;5.32;;;3.33;;